createdAt,value
2022-10-09T00:01:42.461Z,74.57
2022-10-09T00:04:09.529Z,75.03
2022-10-09T00:06:36.732Z,74.82
2022-10-09T00:09:04.116Z,74.22
2022-10-09T00:11:32.429Z,73.36
2022-10-09T00:13:59.885Z,72.52
2022-10-09T00:16:27.563Z,72.66
2022-10-09T00:18:54.810Z,72.72
2022-10-09T00:21:29.656Z,72.80
2022-10-09T00:23:57.838Z,72.66
2022-10-09T00:26:26.010Z,73.24
2022-10-09T00:28:53.432Z,74.06
2022-10-09T00:31:20.593Z,75.12
2022-10-09T00:34:06.141Z,76.94
2022-10-09T00:36:33.244Z,78.95
2022-10-09T00:39:00.362Z,80.53
2022-10-09T00:41:29.232Z,81.56
2022-10-09T00:44:01.179Z,81.08
2022-10-09T00:46:50.809Z,81.96
2022-10-09T00:49:25.053Z,82.46
2022-10-09T00:51:53.742Z,83.01
2022-10-09T00:54:22.748Z,82.58
2022-10-09T00:56:50.086Z,83.49
2022-10-09T00:59:17.878Z,83.44
2022-10-09T01:01:45.657Z,84.62
2022-10-09T01:04:13.038Z,84.83
2022-10-09T01:06:50.032Z,83.78
2022-10-09T01:09:23.689Z,83.58
2022-10-09T01:11:56.332Z,83.33
2022-10-09T01:14:27.791Z,83.78
2022-10-09T01:17:04.101Z,83.95
2022-10-09T01:19:46.372Z,84.96
2022-10-09T01:22:13.468Z,84.20
2022-10-09T01:25:03.556Z,84.56
2022-10-09T01:27:30.868Z,85.95
2022-10-09T01:30:02.409Z,85.96
2022-10-09T01:32:33.711Z,86.23
2022-10-09T01:35:01.167Z,85.23
2022-10-09T01:37:29.922Z,84.67
2022-10-09T01:39:58.124Z,84.75
2022-10-09T01:42:26.643Z,85.78
2022-10-09T01:44:53.693Z,85.67
2022-10-09T01:47:21.563Z,85.29
2022-10-09T01:50:01.740Z,85.31
2022-10-09T01:52:42.023Z,85.23
2022-10-09T01:55:32.420Z,86.17
2022-10-09T02:01:08.514Z,91.20
2022-10-09T02:03:36.225Z,91.44
2022-10-09T02:06:07.914Z,91.71
2022-10-09T02:08:36.923Z,91.17
2022-10-09T02:11:04.456Z,91.15
2022-10-09T02:13:32.992Z,89.95
2022-10-09T02:16:09.536Z,88.77
2022-10-09T02:18:36.728Z,88.37
2022-10-09T02:21:08.772Z,88.56
2022-10-09T02:23:37.038Z,88.68
2022-10-09T02:26:04.766Z,88.01
2022-10-09T02:28:32.308Z,87.29
2022-10-09T02:31:05.495Z,87.23
2022-10-09T02:33:33.792Z,87.62
2022-10-09T02:36:01.537Z,87.03
2022-10-09T02:38:29.036Z,86.91
2022-10-09T02:41:02.208Z,87.32
2022-10-09T02:43:29.504Z,87.78
2022-10-09T02:45:56.657Z,87.64
2022-10-09T02:48:23.765Z,87.62
2022-10-09T02:50:50.835Z,87.61
2022-10-09T02:53:17.926Z,87.83
2022-10-09T02:55:45.063Z,88.31
2022-10-09T02:58:46.431Z,88.37
2022-10-09T03:01:13.845Z,88.22
2022-10-09T03:03:41.040Z,88.64
2022-10-09T03:06:09.683Z,88.96
2022-10-09T03:08:37.850Z,88.68
2022-10-09T03:11:05.217Z,88.17
2022-10-09T03:13:32.628Z,88.22
2022-10-09T03:16:04.407Z,88.25
2022-10-09T03:18:31.729Z,87.86
2022-10-09T03:20:58.899Z,88.34
2022-10-09T03:23:26.217Z,88.09
2022-10-09T03:25:59.987Z,87.95
2022-10-09T03:28:27.621Z,88.31
2022-10-09T03:30:55.184Z,87.61
2022-10-09T03:33:22.878Z,87.89
2022-10-09T03:35:50.257Z,87.75
2022-10-09T03:38:17.412Z,88.25
2022-10-09T03:40:45.007Z,87.88
2022-10-09T03:43:12.105Z,87.71
2022-10-09T03:45:39.782Z,86.68
2022-10-09T03:48:07.255Z,86.24
2022-10-09T03:50:34.741Z,85.88
2022-10-09T03:53:01.917Z,85.52
2022-10-09T03:55:28.986Z,84.78
2022-10-09T03:57:56.052Z,84.99
2022-10-09T04:00:24.208Z,84.79
2022-10-09T04:02:52.540Z,84.73
2022-10-09T04:05:20.217Z,84.95
2022-10-09T04:07:47.357Z,84.89
2022-10-09T04:10:14.603Z,84.85
2022-10-09T04:12:41.806Z,84.74
2022-10-09T04:15:09.521Z,85.01
2022-10-09T04:17:36.856Z,84.63
2022-10-09T04:20:04.484Z,85.02
2022-10-09T04:22:31.717Z,85.18
2022-10-09T04:24:58.846Z,85.63
2022-10-09T04:27:26.132Z,85.98
2022-10-09T04:29:53.234Z,85.94
2022-10-09T04:32:21.792Z,86.11
2022-10-09T04:34:48.922Z,86.71
2022-10-09T04:37:16.037Z,86.67
2022-10-09T04:39:43.267Z,86.38
2022-10-09T04:42:10.462Z,85.72
2022-10-09T04:44:37.634Z,85.59
2022-10-09T04:47:08.120Z,85.09
2022-10-09T04:49:37.726Z,85.56
2022-10-09T04:52:04.884Z,85.98
2022-10-09T04:54:32.056Z,86.47
2022-10-09T04:56:59.193Z,86.84
2022-10-09T04:59:26.339Z,86.82
2022-10-09T05:01:53.438Z,86.95
2022-10-09T05:04:20.547Z,86.85
2022-10-09T05:06:47.737Z,87.19
2022-10-09T05:09:14.800Z,87.31
2022-10-09T05:11:42.911Z,87.24
2022-10-09T05:14:10.573Z,86.97
2022-10-09T05:17:00.975Z,86.72
2022-10-09T05:19:24.819Z,87.99
2022-10-09T05:21:51.898Z,88.48
2022-10-09T05:24:19.091Z,88.47
2022-10-09T05:26:46.170Z,88.38
2022-10-09T05:29:13.329Z,88.64
2022-10-09T05:31:40.511Z,88.25
2022-10-09T05:34:07.648Z,89.19
2022-10-09T05:36:34.757Z,90.02
2022-10-09T05:39:02.021Z,90.40
2022-10-09T05:41:29.746Z,90.62
2022-10-09T05:44:00.544Z,91.94
2022-10-09T05:46:29.746Z,92.22
2022-10-09T05:48:57.896Z,93.10
2022-10-09T05:51:29.287Z,93.75
2022-10-09T05:53:56.840Z,94.26
2022-10-09T05:56:27.894Z,94.09
2022-10-09T05:58:55.974Z,94.68
2022-10-09T06:01:24.912Z,94.64
2022-10-09T06:03:53.153Z,94.01
2022-10-09T06:06:21.032Z,94.15
2022-10-09T06:08:48.505Z,95.43
2022-10-09T06:11:16.886Z,95.19
2022-10-09T06:13:44.439Z,94.88
2022-10-09T06:16:12.854Z,94.85
2022-10-09T06:18:42.233Z,95.33
2022-10-09T06:21:11.570Z,95.33
2022-10-09T06:23:38.776Z,94.72
2022-10-09T06:26:10.731Z,94.88
2022-10-09T06:28:38.288Z,94.50
2022-10-09T06:31:05.693Z,94.52
2022-10-09T06:33:34.256Z,94.82
2022-10-09T06:36:10.416Z,95.88
2022-10-09T06:38:38.351Z,96.06
2022-10-09T06:41:07.234Z,96.30
2022-10-09T06:43:34.481Z,95.75
2022-10-09T06:46:03.367Z,95.71
2022-10-09T06:48:31.652Z,95.75
2022-10-09T06:51:02.761Z,95.89
2022-10-09T06:53:29.895Z,95.42
2022-10-09T06:56:01.679Z,94.26
2022-10-09T06:58:30.313Z,93.66
2022-10-09T07:01:06.759Z,92.76
2022-10-09T07:03:34.233Z,92.82
2022-10-09T07:06:07.585Z,92.80
2022-10-09T07:08:35.448Z,92.72
2022-10-09T07:11:12.765Z,92.63
2022-10-09T07:13:40.615Z,92.46
2022-10-09T07:16:08.241Z,91.93
2022-10-09T07:18:36.390Z,90.89
2022-10-09T07:21:04.665Z,91.14
2022-10-09T07:23:32.813Z,91.20
2022-10-09T07:26:00.234Z,89.90
2022-10-09T07:28:28.398Z,89.88
2022-10-09T07:30:56.092Z,89.11
2022-10-09T07:33:23.320Z,88.13
2022-10-09T07:35:57.657Z,87.74
2022-10-09T07:38:25.293Z,88.12
2022-10-09T07:40:52.881Z,87.32
2022-10-09T07:43:20.447Z,86.79
2022-10-09T07:45:47.603Z,86.38
2022-10-09T07:48:14.812Z,85.75
2022-10-09T07:50:42.008Z,84.45
2022-10-09T07:53:09.891Z,83.74
2022-10-09T07:55:37.091Z,81.73
2022-10-09T07:58:04.237Z,80.90
2022-10-09T08:00:31.366Z,79.79
2022-10-09T08:02:58.602Z,77.66
2022-10-09T08:05:25.766Z,76.96
2022-10-09T08:07:53.043Z,75.69
2022-10-09T08:10:20.194Z,73.17
2022-10-09T08:12:47.757Z,68.91
2022-10-09T08:15:15.126Z,68.25
2022-10-09T08:17:42.548Z,61.96
2022-10-09T08:20:09.852Z,60.58
2022-10-09T08:22:37.010Z,60.14
2022-10-09T08:25:04.361Z,59.79
2022-10-09T08:27:31.530Z,59.01
2022-10-09T08:29:58.677Z,58.66
2022-10-09T08:32:25.814Z,57.55
2022-10-09T08:34:53.001Z,57.59
2022-10-09T08:37:20.164Z,58.16
2022-10-09T08:39:47.347Z,56.62
2022-10-09T08:42:31.263Z,54.23
2022-10-09T08:45:00.231Z,52.38
2022-10-09T08:47:47.613Z,50.45
2022-10-09T08:50:14.769Z,49.67
2022-10-09T08:53:00.412Z,50.02
2022-10-09T08:55:29.549Z,50.61
2022-10-09T08:58:00.926Z,52.60
2022-10-09T09:00:30.118Z,52.66
2022-10-09T09:03:20.442Z,53.27
2022-10-09T09:05:58.038Z,53.36
2022-10-09T09:08:38.152Z,54.09
2022-10-09T09:11:22.406Z,54.39
2022-10-09T09:13:52.614Z,53.66
2022-10-09T09:16:31.428Z,53.53
2022-10-09T09:19:14.115Z,53.34
2022-10-09T09:21:48.484Z,53.25
2022-10-09T09:24:17.753Z,53.91
2022-10-09T09:26:47.416Z,54.22
2022-10-09T09:29:15.695Z,53.48
2022-10-09T09:31:43.285Z,53.25
2022-10-09T09:34:20.715Z,53.35
2022-10-09T09:37:00.542Z,53.45
2022-10-09T09:42:18.145Z,53.46
2022-10-09T09:45:05.470Z,53.21
2022-10-09T09:47:38.864Z,53.65
2022-10-09T09:50:06.386Z,53.48
2022-10-09T09:52:39.452Z,53.07
2022-10-09T09:55:06.897Z,53.32
2022-10-09T09:57:40.844Z,54.00
2022-10-09T10:00:23.587Z,54.30
2022-10-09T10:03:01.684Z,54.57
2022-10-09T10:05:34.209Z,54.34
2022-10-09T10:08:01.372Z,55.32
2022-10-09T10:10:28.601Z,55.71
2022-10-09T10:12:57.007Z,56.00
2022-10-09T10:15:24.102Z,55.48
2022-10-09T10:18:04.732Z,54.81
2022-10-09T10:20:41.372Z,55.55
2022-10-09T10:23:44.162Z,55.68
2022-10-09T10:26:29.913Z,55.59
2022-10-09T10:29:12.153Z,54.91
2022-10-09T10:31:52.148Z,55.74
2022-10-09T10:34:30.759Z,55.41
2022-10-09T10:37:20.622Z,55.90
2022-10-09T10:39:50.931Z,56.06
2022-10-09T10:42:21.863Z,55.96
2022-10-09T10:44:54.455Z,55.61
2022-10-09T10:47:24.224Z,55.54
2022-10-09T10:49:51.423Z,55.06
2022-10-09T10:52:36.239Z,54.72
2022-10-09T10:55:15.644Z,54.17
2022-10-09T10:57:49.759Z,54.92
2022-10-09T11:00:17.539Z,54.29
2022-10-09T11:03:06.344Z,54.03
2022-10-09T11:05:42.890Z,54.27
2022-10-09T11:08:28.886Z,54.27
2022-10-09T11:10:58.848Z,54.59
2022-10-09T11:13:29.683Z,54.88
2022-10-09T11:15:59.959Z,55.10
2022-10-09T11:18:27.108Z,55.79
2022-10-09T11:20:54.257Z,56.47
2022-10-09T11:23:26.975Z,54.71
2022-10-09T11:26:06.052Z,53.60
2022-10-09T11:28:37.540Z,54.03
2022-10-09T11:31:11.932Z,53.75
2022-10-09T11:33:43.522Z,54.15
2022-10-09T11:36:13.421Z,54.01
2022-10-09T11:38:48.824Z,53.22
2022-10-09T11:41:16.343Z,54.31
2022-10-09T11:43:48.812Z,54.14
2022-10-09T11:46:18.816Z,53.33
2022-10-09T11:48:52.574Z,52.23
2022-10-09T11:51:23.372Z,52.09
2022-10-09T11:53:51.360Z,52.70
2022-10-09T11:56:26.662Z,51.73
2022-10-09T11:58:59.129Z,52.00
2022-10-09T12:01:31.508Z,51.79
2022-10-09T12:04:09.558Z,51.14
2022-10-09T12:06:47.558Z,51.04
2022-10-09T12:09:33.569Z,50.83
2022-10-09T12:12:09.131Z,52.40
2022-10-09T12:14:37.474Z,53.06
2022-10-09T12:17:30.964Z,53.27
2022-10-09T12:20:04.108Z,52.62
2022-10-09T12:22:40.672Z,53.23
2022-10-09T12:25:15.104Z,53.13
2022-10-09T12:27:42.769Z,53.13
2022-10-09T12:30:13.389Z,52.71
2022-10-09T12:32:43.469Z,52.44
2022-10-09T12:35:16.664Z,52.15
2022-10-09T12:37:43.839Z,52.24
2022-10-09T12:40:15.449Z,52.14
2022-10-09T12:42:43.606Z,51.74
2022-10-09T12:45:15.927Z,51.08
2022-10-09T12:47:43.213Z,50.46
2022-10-09T12:50:16.562Z,50.54
2022-10-09T12:52:48.047Z,50.64
2022-10-09T12:55:16.269Z,51.04
2022-10-09T12:57:43.593Z,50.73
2022-10-09T13:00:14.293Z,49.94
2022-10-09T13:02:41.666Z,49.81
2022-10-09T13:05:09.079Z,50.58
2022-10-09T13:07:36.245Z,50.77
2022-10-09T13:10:08.152Z,50.70
2022-10-09T13:12:35.424Z,49.19
2022-10-09T13:15:04.992Z,49.57
2022-10-09T13:17:33.805Z,50.07
2022-10-09T13:20:02.699Z,48.89
2022-10-09T13:22:33.718Z,48.27
2022-10-09T13:25:04.153Z,48.34
2022-10-09T13:27:32.669Z,48.42
2022-10-09T13:30:01.538Z,48.72
2022-10-09T13:32:28.710Z,49.52
2022-10-09T13:34:55.907Z,48.99
2022-10-09T13:37:23.925Z,49.49
2022-10-09T13:39:54.871Z,49.63
2022-10-09T13:42:23.437Z,49.32
2022-10-09T13:44:50.626Z,48.67
2022-10-09T13:47:20.754Z,47.86
2022-10-09T13:49:51.323Z,47.92
2022-10-09T13:52:18.714Z,48.21
2022-10-09T13:54:45.857Z,48.64
2022-10-09T13:57:13.123Z,48.55
2022-10-09T13:59:40.323Z,48.73
2022-10-09T14:02:07.497Z,48.88
2022-10-09T14:04:34.632Z,49.25
2022-10-09T14:07:01.788Z,49.47
2022-10-09T14:09:28.893Z,49.84
2022-10-09T14:11:56.223Z,50.14
2022-10-09T14:14:23.515Z,50.29
2022-10-09T14:16:50.901Z,50.40
2022-10-09T14:19:18.213Z,49.30
2022-10-09T14:21:46.902Z,49.25
2022-10-09T14:24:14.925Z,48.53
2022-10-09T14:26:44.798Z,48.61
2022-10-09T14:29:13.529Z,48.92
2022-10-09T14:31:40.771Z,49.48
2022-10-09T14:34:07.941Z,49.62
2022-10-09T14:36:37.194Z,50.04
2022-10-09T14:39:04.395Z,50.38
2022-10-09T14:41:36.820Z,50.82
2022-10-09T14:44:05.785Z,50.76
2022-10-09T14:46:34.025Z,50.84
2022-10-09T14:49:07.452Z,50.56
2022-10-09T14:51:36.960Z,50.52
2022-10-09T14:54:04.785Z,50.76
2022-10-09T14:56:31.954Z,51.14
2022-10-09T14:59:01.061Z,51.07
2022-10-09T15:01:29.509Z,50.98
2022-10-09T15:03:56.788Z,50.90
2022-10-09T15:06:24.282Z,50.92
2022-10-09T15:08:54.572Z,51.32
2022-10-09T15:11:22.162Z,50.05
2022-10-09T15:13:49.341Z,49.68
2022-10-09T15:16:17.783Z,50.02
2022-10-09T15:18:45.519Z,50.65
2022-10-09T15:21:16.745Z,50.27
2022-10-09T15:23:43.956Z,50.62
2022-10-09T15:26:11.179Z,49.90
2022-10-09T15:28:38.846Z,50.49
2022-10-09T15:31:06.768Z,50.41
2022-10-09T15:33:33.932Z,50.91
2022-10-09T15:36:02.752Z,51.09
2022-10-09T15:38:29.950Z,51.31
2022-10-09T15:40:57.147Z,51.49
2022-10-09T15:43:25.382Z,51.40
2022-10-09T15:45:54.207Z,50.86
2022-10-09T15:48:23.376Z,50.73
2022-10-09T15:50:52.225Z,50.75
2022-10-09T15:53:20.728Z,50.47
2022-10-09T15:55:49.113Z,50.49
2022-10-09T15:58:16.736Z,50.50
2022-10-09T16:00:47.370Z,50.90
2022-10-09T16:03:14.861Z,51.19
2022-10-09T16:05:43.492Z,50.95
2022-10-09T16:08:11.422Z,51.26
2022-10-09T16:10:48.636Z,51.64
2022-10-09T16:13:16.756Z,52.06
2022-10-09T16:15:44.785Z,52.38
2022-10-09T16:18:11.955Z,52.36
2022-10-09T16:20:39.929Z,52.78
2022-10-09T16:23:08.262Z,52.72
2022-10-09T16:25:36.385Z,53.13
2022-10-09T16:28:03.757Z,53.45
2022-10-09T16:30:32.328Z,53.41
2022-10-09T16:32:59.529Z,53.55
2022-10-09T16:35:26.711Z,53.74
2022-10-09T16:37:54.098Z,53.65
2022-10-09T16:40:32.686Z,54.10
2022-10-09T16:43:08.430Z,54.38
2022-10-09T16:45:35.629Z,54.60
2022-10-09T16:48:02.777Z,55.34
2022-10-09T16:50:30.090Z,55.64
2022-10-09T16:52:57.722Z,56.25
2022-10-09T16:55:25.473Z,56.41
2022-10-09T16:57:53.099Z,56.74
2022-10-09T17:00:20.385Z,57.10
2022-10-09T17:02:47.604Z,57.24
2022-10-09T17:05:14.707Z,57.70
2022-10-09T17:07:41.876Z,57.67
2022-10-09T17:10:09.571Z,57.59
2022-10-09T17:12:37.208Z,57.95
2022-10-09T17:15:05.468Z,58.62
2022-10-09T17:17:32.611Z,58.72
2022-10-09T17:19:59.804Z,59.00
2022-10-09T17:22:26.894Z,59.12
2022-10-09T17:24:54.002Z,59.25
2022-10-09T17:27:21.197Z,59.46
2022-10-09T17:29:48.250Z,59.67
2022-10-09T17:32:15.445Z,59.90
2022-10-09T17:34:45.827Z,60.04
2022-10-09T17:37:13.519Z,59.55
2022-10-09T17:39:43.213Z,59.95
2022-10-09T17:42:11.977Z,59.87
2022-10-09T17:44:39.160Z,60.20
2022-10-09T17:47:06.287Z,60.24
2022-10-09T17:49:33.430Z,60.17
2022-10-09T17:52:00.573Z,60.59
2022-10-09T17:54:27.697Z,59.99
2022-10-09T17:56:54.812Z,59.77
2022-10-09T17:59:56.828Z,59.79
2022-10-09T18:02:23.941Z,60.05
2022-10-09T18:04:51.319Z,60.08
2022-10-09T18:07:20.134Z,59.90
2022-10-09T18:09:49.501Z,60.11
2022-10-09T18:12:16.821Z,60.40
2022-10-09T18:14:43.890Z,60.40
2022-10-09T18:17:10.989Z,60.60
2022-10-09T18:19:38.111Z,60.69
2022-10-09T18:22:05.407Z,60.79
2022-10-09T18:24:32.516Z,60.47
2022-10-09T18:26:59.600Z,61.03
2022-10-09T18:29:26.830Z,61.23
2022-10-09T18:31:55.774Z,61.58
2022-10-09T18:34:22.950Z,61.78
2022-10-09T18:36:52.088Z,61.85
2022-10-09T18:39:21.661Z,61.95
2022-10-09T18:41:48.838Z,62.08
2022-10-09T18:44:17.920Z,62.58
2022-10-09T18:46:48.405Z,62.13
2022-10-09T18:49:17.450Z,62.13
2022-10-09T18:51:45.356Z,62.08
2022-10-09T18:54:17.929Z,62.38
2022-10-09T18:56:46.238Z,62.27
2022-10-09T18:59:15.092Z,62.34
2022-10-09T19:01:42.853Z,62.32
2022-10-09T19:04:10.578Z,61.83
2022-10-09T19:06:37.855Z,62.38
2022-10-09T19:09:05.070Z,62.20
2022-10-09T19:11:33.919Z,62.08
2022-10-09T19:14:02.440Z,62.45
2022-10-09T19:16:31.880Z,62.59
2022-10-09T19:18:59.685Z,62.77
2022-10-09T19:21:27.160Z,62.96
2022-10-09T19:23:55.242Z,62.69
2022-10-09T19:26:23.967Z,62.76
2022-10-09T19:28:52.488Z,62.74
2022-10-09T19:31:20.239Z,62.84
2022-10-09T19:33:48.032Z,62.90
2022-10-09T19:36:15.676Z,63.15
2022-10-09T19:38:43.925Z,62.98
2022-10-09T19:41:13.256Z,63.73
2022-10-09T19:43:40.686Z,63.67
2022-10-09T19:46:10.227Z,63.42
2022-10-09T19:48:38.026Z,63.57
2022-10-09T19:51:11.760Z,63.49
2022-10-09T19:53:39.627Z,63.51
2022-10-09T19:56:11.374Z,63.54
2022-10-09T19:58:40.979Z,63.58
2022-10-09T20:01:09.963Z,64.07
2022-10-09T20:03:38.250Z,64.06
2022-10-09T20:06:06.213Z,64.04
2022-10-09T20:08:33.841Z,64.36
2022-10-09T20:11:03.687Z,64.63
2022-10-09T20:13:31.782Z,64.60
2022-10-09T20:15:59.643Z,64.05
2022-10-09T20:18:27.846Z,63.64
2022-10-09T20:20:55.127Z,61.81
2022-10-09T20:23:22.558Z,61.24
2022-10-09T20:25:58.075Z,61.68
2022-10-09T20:28:25.247Z,60.76
2022-10-09T20:30:56.184Z,59.73
2022-10-09T20:33:23.392Z,59.20
2022-10-09T20:35:50.520Z,59.00
2022-10-09T20:38:25.378Z,58.47
2022-10-09T20:40:53.244Z,58.83
2022-10-09T20:43:20.359Z,58.82
2022-10-09T20:45:47.479Z,58.43
2022-10-09T20:48:14.677Z,58.50
2022-10-09T20:50:42.032Z,57.94
2022-10-09T20:53:10.105Z,58.08
2022-10-09T20:55:37.313Z,58.18
2022-10-09T20:58:04.631Z,57.55
2022-10-09T21:00:31.772Z,57.85
2022-10-09T21:02:58.941Z,57.40
2022-10-09T21:05:26.073Z,56.90
2022-10-09T21:07:53.213Z,56.54
2022-10-09T21:10:20.345Z,56.26
2022-10-09T21:12:47.607Z,57.07
2022-10-09T21:15:14.879Z,56.76
2022-10-09T21:17:42.005Z,57.09
2022-10-09T21:20:09.516Z,56.71
2022-10-09T21:22:36.612Z,56.93
2022-10-09T21:25:03.805Z,56.11
2022-10-09T21:27:30.890Z,56.90
2022-10-09T21:29:58.005Z,56.85
2022-10-09T21:32:25.192Z,56.64
2022-10-09T21:34:52.231Z,57.11
2022-10-09T21:37:22.032Z,57.21
2022-10-09T21:39:49.616Z,57.08
2022-10-09T21:42:16.718Z,57.37
2022-10-09T21:44:43.853Z,57.47
2022-10-09T21:47:15.420Z,57.36
2022-10-09T21:49:42.511Z,57.28
2022-10-09T21:52:10.141Z,57.25
2022-10-09T21:54:37.222Z,57.42
2022-10-09T21:57:04.354Z,57.60
2022-10-09T21:59:31.519Z,57.22
2022-10-09T22:01:59.259Z,56.81
2022-10-09T22:04:27.049Z,56.35
2022-10-09T22:06:54.300Z,56.53
2022-10-09T22:09:21.514Z,56.04
2022-10-09T22:11:48.749Z,56.37
2022-10-09T22:14:15.946Z,56.26
2022-10-09T22:16:43.130Z,56.29
2022-10-09T22:19:10.292Z,56.19
2022-10-09T22:21:37.624Z,56.27
2022-10-09T22:24:04.888Z,56.18
2022-10-09T22:26:32.044Z,56.65
2022-10-09T22:28:59.164Z,57.11
2022-10-09T22:31:26.954Z,56.46
2022-10-09T22:33:57.357Z,57.09
2022-10-09T22:36:26.306Z,56.90
2022-10-09T22:38:54.834Z,56.98
2022-10-09T22:41:23.009Z,56.75
2022-10-09T22:43:51.939Z,56.69
2022-10-09T22:46:23.673Z,56.57
2022-10-09T22:48:50.875Z,56.47
2022-10-09T22:51:18.778Z,56.18
2022-10-09T22:53:46.535Z,56.24
2022-10-09T22:56:17.884Z,55.95
2022-10-09T22:58:45.441Z,55.78
2022-10-09T23:01:14.619Z,55.83
2022-10-09T23:03:42.108Z,55.91
2022-10-09T23:06:10.642Z,55.78
2022-10-09T23:08:39.057Z,55.79
2022-10-09T23:11:06.648Z,55.81
2022-10-09T23:13:34.172Z,55.84
2022-10-09T23:16:02.201Z,55.45
2022-10-09T23:18:29.844Z,55.61
2022-10-09T23:20:57.016Z,55.47
2022-10-09T23:23:24.209Z,55.38
2022-10-09T23:25:51.573Z,54.80
2022-10-09T23:28:18.751Z,55.07
2022-10-09T23:30:45.901Z,54.37
2022-10-09T23:33:13.144Z,54.33
2022-10-09T23:35:41.325Z,54.22
2022-10-09T23:38:08.574Z,54.00
2022-10-09T23:40:35.687Z,53.71
2022-10-09T23:43:02.984Z,53.92
2022-10-09T23:45:30.088Z,54.05
2022-10-09T23:47:57.172Z,53.88
2022-10-09T23:50:24.362Z,53.81
2022-10-09T23:52:51.964Z,53.29
2022-10-09T23:55:19.407Z,53.27
2022-10-09T23:57:49.145Z,53.40
